Vinton, IA

5:03 AM CST on December 09, 2016 (GMT -0600)
| | Change Station

Elev -9999 ft 0.00 °N, 0.00 °E | Updated

Thunderstorm
Thunderstorm
71 °F
Feels Like 71 °F
N
4
Wind Variable Wind from SSE
Gusts mph

Today
High -- | Low -- °F
--% Chance of Precip.
Yesterday
High -- | Low -- °F
Precip. -- in
Pressure 30.57 in
Visibility 10.0 miles
Clouds Scattered Clouds 3300 ft
Dew Point 56 °F
Humidity 59%
Rainfall --
Snow Depth Not available.
7:25 AM 4:36 PM
Waxing Gibbous, 73% visible
METAR KVTI 091055Z AUTO 29005KT 10SM -SN SCT033 M09/M12 A3057 RMK AO2
Pressure 30.57 in
Visibility 10.0 miles
Clouds Scattered Clouds 3300 ft
Dew Point 56 °F
Humidity 59%
Rainfall --
Snow Depth Not available.
7:25 AM 4:36 PM
Waxing Gibbous, 73% visible
METAR KVTI 091055Z AUTO 29005KT 10SM -SN SCT033 M09/M12 A3057 RMK AO2

10-Day Weather Forecast

Almanac

Astronomy

Dec. 09, 2016 Rise Set
Actual Time
Civil Twilight
Nautical Twilight
Astronomical Twilight
Moon
Length of Visible Light
Length of Day
Tomorrow will be .
, % of the Moon is Illuminated

Today's Extremes

State Highs State Lows

Community

WunderPhotos

Upload Photos

1,956,378 photos uploaded!

WunderBlog® & News

Nearby

Air Quality

  Air Quality AQ Index Pollutant
Not available.

Snow Depth

Station Depth Elevation

Earthquake Activity

City Distance Mag. Time & Date
Minimum magnitude displayed is 2.5.

Coastal Water Temperatures

Place Temperature

Stations

Nearby Weather Stations

Station Location Temp. Windchill Dew Point Humidity Wind Precip. Elev Updated Type
                   

Watches & Warnings

There are currently no watches in effect.